Time;durP1;ratioP1;P1;durP2;ratioP2;P2;SDS_P1;SDS_P2;PMS_P1;PMS_P2;Temp;Humidity;BMP_temperature;BMP_pressure;BME280_temperature;BME280_humidity;BME280_pressure;Samples;Min_cycle;Max_cycle;Signal;HPM_P1;HPM_P2
2023/03/04 00:00:47;;;;;;;0.60;0.60;;;;;;;3.61;57.89;99310.62;4485899;32;34395;-79
2023/03/04 00:03:15;;;;;;;1.60;1.60;;;;;;;3.57;57.49;99314.00;4485852;32;33417;-74
2023/03/04 00:05:43;;;;;;;0.88;0.88;;;;;;;3.09;58.86;99309.72;4485924;32;33971;-79
2023/03/04 00:08:12;;;;;;;3.22;3.03;;;;;;;3.21;58.08;99315.09;4471666;32;35141;-73
2023/03/04 00:10:40;;;;;;;0.70;0.70;;;;;;;3.26;58.19;99322.03;4485828;32;34507;-79
2023/03/04 00:13:08;;;;;;;0.70;0.70;;;;;;;3.30;57.99;99316.09;4485880;32;33449;-79
2023/03/04 00:15:36;;;;;;;0.60;0.60;;;;;;;3.09;58.38;99320.00;4458809;32;33126;-79
2023/03/04 00:18:04;;;;;;;2.58;2.47;;;;;;;3.44;57.47;99317.19;4485842;32;35191;-73
2023/03/04 00:20:32;;;;;;;0.75;0.75;;;;;;;3.47;57.38;99321.53;4485772;32;34068;-78
2023/03/04 00:23:00;;;;;;;0.70;0.70;;;;;;;2.98;59.27;99316.34;4485711;32;33699;-77
2023/03/04 00:25:29;;;;;;;0.70;0.70;;;;;;;3.76;56.86;99310.03;4485576;31;34566;-79
2023/03/04 00:28:00;;;;;;;1.20;1.20;;;;;;;3.09;58.03;99317.44;4485609;32;35047;-75
2023/03/04 00:30:28;;;;;;;0.60;0.60;;;;;;;3.02;57.98;99313.00;4485590;31;34942;-79
2023/03/04 00:32:56;;;;;;;0.75;0.75;;;;;;;3.30;57.39;99313.50;4485663;32;34565;-73
2023/03/04 00:35:24;;;;;;;0.70;0.70;;;;;;;2.83;58.47;99312.63;4485571;32;34556;-74
2023/03/04 00:37:52;;;;;;;1.40;1.40;;;;;;;2.96;58.19;99318.88;4471450;32;35982;-79
2023/03/04 00:40:21;;;;;;;0.70;0.70;;;;;;;2.92;58.26;99318.81;4485556;32;34865;-78
2023/03/04 00:42:49;;;;;;;0.70;0.70;;;;;;;2.69;58.57;99308.94;4471239;32;33357;-76
2023/03/04 00:45:17;;;;;;;1.65;1.58;;;;;;;2.64;58.68;99310.53;4471721;32;33762;-74
2023/03/04 00:47:45;;;;;;;0.70;0.70;;;;;;;2.26;59.38;99311.47;4490423;32;35100;-74
2023/03/04 00:50:13;;;;;;;2.17;2.00;;;;;;;2.90;58.05;99307.63;4490705;32;34998;-78
2023/03/04 00:52:41;;;;;;;0.80;0.80;;;;;;;3.01;57.13;99303.56;4490546;32;33388;-73
2023/03/04 00:55:10;;;;;;;0.80;0.80;;;;;;;3.57;55.77;99300.25;4463474;32;33364;-79
2023/03/04 00:57:38;;;;;;;0.68;0.68;;;;;;;3.02;56.82;99302.72;4476387;32;35788;-79
2023/03/04 01:00:07;;;;;;;0.70;0.70;;;;;;;2.61;57.93;99292.47;4490409;32;35087;-78
2023/03/04 01:02:35;;;;;;;1.73;1.65;;;;;;;2.99;57.09;99292.37;4476167;32;32674;-74
2023/03/04 01:05:04;;;;;;;1.05;1.05;;;;;;;2.79;57.04;99292.84;4490374;32;33892;-78
2023/03/04 01:07:32;;;;;;;1.90;1.80;;;;;;;2.73;56.78;99290.16;4476356;32;35039;-73
2023/03/04 01:10:01;;;;;;;0.70;0.70;;;;;;;3.01;56.38;99290.69;4490240;32;34492;-73
2023/03/04 01:12:29;;;;;;;1.00;1.00;;;;;;;2.55;57.87;99289.78;4476248;32;33425;-79
2023/03/04 01:14:58;;;;;;;0.80;0.80;;;;;;;2.03;58.54;99290.41;4490346;31;34732;-79
2023/03/04 01:17:26;;;;;;;4.87;4.30;;;;;;;2.64;57.07;99283.13;4490215;31;35051;-73
2023/03/04 01:19:54;;;;;;;14.00;12.63;;;;;;;2.43;58.13;99275.84;4490175;32;34340;-77
2023/03/04 01:22:22;;;;;;;0.70;0.70;;;;;;;2.30;59.08;99279.00;4489948;32;33602;-74
2023/03/04 01:24:51;;;;;;;0.68;0.68;;;;;;;2.27;58.88;99278.91;4490056;32;34736;-79
2023/03/04 01:27:19;;;;;;;0.70;0.70;;;;;;;2.54;58.30;99277.75;4490255;31;36003;-78
2023/03/04 01:29:46;;;;;;;0.70;0.70;;;;;;;2.36;58.40;99273.97;4490049;31;35321;-78
2023/03/04 01:32:15;;;;;;;1.80;1.70;;;;;;;1.90;59.58;99273.81;4489985;32;34299;-73
2023/03/04 01:34:43;;;;;;;0.70;0.70;;;;;;;1.85;60.65;99275.44;4490045;32;33749;-78
2023/03/04 01:37:12;;;;;;;1.60;1.58;;;;;;;2.03;60.00;99277.56;4462892;32;35033;-74
2023/03/04 01:39:41;;;;;;;1.80;1.70;;;;;;;1.86;60.30;99273.75;4490104;31;34435;-74
2023/03/04 01:42:25;;;;;;;0.70;0.70;;;;;;;1.84;60.69;99272.84;4475826;32;33452;-79
2023/03/04 01:44:53;;;;;;;1.08;1.08;;;;;;;1.57;61.02;99279.06;4475733;32;34627;-79
2023/03/04 01:47:23;;;;;;;1.00;1.00;;;;;;;1.83;60.16;99260.81;4475526;32;35215;-78
2023/03/04 01:49:53;;;;;;;1.45;1.40;;;;;;;1.48;60.72;99260.84;4462814;32;34474;-78
2023/03/04 01:52:22;;;;;;;0.70;0.70;;;;;;;2.02;59.41;99259.56;4475732;32;33462;-78
2023/03/04 01:54:50;;;;;;;1.00;1.00;;;;;;;2.20;58.49;99251.38;4475533;32;33783;-79
2023/03/04 01:57:21;;;;;;;0.80;0.80;;;;;;;2.34;57.69;99249.94;4488218;32;35864;-74
2023/03/04 02:00:19;;;;;;;1.85;1.55;;;;;;;2.51;57.32;99249.47;4487028;31;34576;-73
2023/03/04 02:02:50;;;;;;;1.98;1.87;;;;;;;2.52;56.94;99253.75;4480609;32;33370;-79
2023/03/04 02:05:19;;;;;;;0.60;0.60;;;;;;;2.26;57.48;99254.94;4472777;32;34580;-79
2023/03/04 02:07:48;;;;;;;2.40;2.30;;;;;;;2.45;56.59;99247.59;4486768;32;35050;-79
2023/03/04 02:10:16;;;;;;;1.33;1.27;;;;;;;2.60;56.26;99242.78;4472620;32;35087;-79
2023/03/04 02:12:45;;;;;;;0.60;0.60;;;;;;;1.69;59.09;99248.56;4472909;32;34640;-74
2023/03/04 02:15:13;;;;;;;0.90;0.90;;;;;;;1.60;58.83;99253.44;4472671;32;33811;-73
2023/03/04 02:17:41;;;;;;;0.70;0.70;;;;;;;1.62;58.77;99246.66;4486971;32;35034;-73
2023/03/04 02:20:29;;;;;;;0.70;0.70;;;;;;;2.02;56.98;99239.84;4486857;32;34561;-73
2023/03/04 02:23:01;;;;;;;0.70;0.70;;;;;;;1.88;57.21;99234.41;4472595;32;33522;-73
2023/03/04 02:25:35;;;;;;;1.33;1.33;;;;;;;1.85;57.19;99239.50;4472366;32;32992;-73
2023/03/04 02:28:03;;;;;;;0.70;0.70;;;;;;;1.94;57.06;99238.84;4472592;32;35023;-73
2023/03/04 02:30:31;;;;;;;0.70;0.70;;;;;;;2.17;56.66;99230.75;4486789;32;34551;-74
2023/03/04 02:32:59;;;;;;;0.60;0.60;;;;;;;1.82;57.54;99236.00;4472540;32;34365;-73
2023/03/04 02:35:27;;;;;;;1.83;1.73;;;;;;;2.03;56.56;99228.78;4459440;32;33275;-73
2023/03/04 02:37:56;;;;;;;1.25;1.15;;;;;;;1.34;59.32;99224.59;4472719;32;35786;-73
2023/03/04 02:40:30;;;;;;;0.70;0.70;;;;;;;1.80;56.80;99219.66;4472853;32;35404;-74
2023/03/04 02:42:59;;;;;;;0.80;0.80;;;;;;;1.78;57.33;99226.47;4459761;32;34352;-73
2023/03/04 02:45:48;;;;;;;0.80;0.80;;;;;;;1.72;57.47;99221.22;4472469;32;33936;-73
2023/03/04 02:48:20;;;;;;;0.70;0.70;;;;;;;2.04;56.49;99215.06;4459753;32;35121;-73
2023/03/04 02:50:50;;;;;;;0.70;0.70;;;;;;;1.42;58.02;99219.66;4472456;32;34375;-72
2023/03/04 02:53:24;;;;;;;0.70;0.70;;;;;;;1.46;58.67;99213.78;4472596;32;33536;-73
2023/03/04 02:55:52;;;;;;;0.70;0.70;;;;;;;1.28;58.63;99211.62;4486705;32;33930;-77
2023/03/04 02:58:21;;;;;;;0.80;0.80;;;;;;;1.40;58.70;99208.50;4472669;32;35770;-78
2023/03/04 03:00:49;;;;;;;0.70;0.70;;;;;;;1.48;58.53;99207.87;4486274;32;34326;-73
2023/03/04 03:03:17;;;;;;;0.70;0.70;;;;;;;1.35;58.30;99208.37;4486284;32;34488;-73
2023/03/04 03:05:46;;;;;;;0.80;0.80;;;;;;;1.24;58.49;99213.25;4472475;32;33868;-73
2023/03/04 03:08:14;;;;;;;0.80;0.80;;;;;;;1.45;57.73;99206.91;4472137;32;35918;-73
2023/03/04 03:10:42;;;;;;;0.75;0.75;;;;;;;1.27;57.91;99205.66;4471342;32;35319;-73
2023/03/04 03:13:11;;;;;;;1.73;1.62;;;;;;;1.58;57.05;99208.94;4486645;32;33496;-73
2023/03/04 03:15:41;;;;;;;1.23;1.02;;;;;;;1.00;58.56;99204.94;4472500;31;33845;-73
2023/03/04 03:18:09;;;;;;;2.75;2.65;;;;;;;1.31;58.06;99199.75;4471997;32;33711;-73
2023/03/04 03:20:38;;;;;;;0.70;0.70;;;;;;;1.24;58.38;99208.13;4472244;32;34517;-72
2023/03/04 03:23:07;;;;;;;0.70;0.70;;;;;;;1.21;57.83;99202.91;4472238;32;33402;-73
2023/03/04 03:25:35;;;;;;;0.95;0.95;;;;;;;0.88;59.13;99198.69;4486540;32;34677;-73
2023/03/04 03:28:05;;;;;;;0.90;0.90;;;;;;;1.39;58.07;99192.22;4486078;32;35154;-73
2023/03/04 03:30:33;;;;;;;0.70;0.70;;;;;;;0.80;59.44;99200.19;4486149;32;35160;-73
2023/03/04 03:33:03;;;;;;;0.88;0.88;;;;;;;0.92;59.64;99190.25;4486591;32;32659;-73
2023/03/04 03:35:31;;;;;;;3.28;3.08;;;;;;;1.13;58.88;99189.06;4486353;32;33896;-73
2023/03/04 03:37:59;;;;;;;0.80;0.80;;;;;;;0.78;59.53;99196.72;4472330;32;35984;-73
2023/03/04 03:40:27;;;;;;;0.70;0.70;;;;;;;1.33;58.31;99186.97;4471862;32;33864;-73
2023/03/04 03:42:56;;;;;;;2.72;2.15;;;;;;;1.47;57.90;99184.72;4486060;32;34127;-73
2023/03/04 03:45:24;;;;;;;0.80;0.80;;;;;;;1.28;58.17;99183.41;4486085;32;33832;-72
2023/03/04 03:47:52;;;;;;;0.80;0.80;;;;;;;1.17;58.48;99185.72;4485780;32;35744;-73
2023/03/04 03:50:20;;;;;;;1.37;1.35;;;;;;;1.27;58.21;99182.56;4471888;32;34660;-73
2023/03/04 03:52:48;;;;;;;0.80;0.80;;;;;;;1.32;57.87;99186.09;4472017;32;33809;-73
2023/03/04 03:55:16;;;;;;;1.98;1.87;;;;;;;1.26;58.13;99182.53;4472035;32;34122;-73
2023/03/04 03:57:45;;;;;;;0.70;0.70;;;;;;;1.35;57.93;99174.19;4485937;32;35079;-73
2023/03/04 04:00:15;;;;;;;0.70;0.70;;;;;;;1.21;58.73;99178.97;4485990;32;34508;-74
2023/03/04 04:02:43;;;;;;;0.70;0.70;;;;;;;1.30;58.35;99182.62;4486012;32;32662;-72
2023/03/04 04:05:11;;;;;;;1.15;1.15;;;;;;;0.99;59.40;99183.59;4471763;32;34644;-73
2023/03/04 04:07:40;;;;;;;0.70;0.70;;;;;;;1.05;59.18;99186.28;4471923;32;35053;-73
2023/03/04 04:10:10;;;;;;;0.80;0.80;;;;;;;0.79;60.80;99188.19;4485841;32;34570;-73
2023/03/04 04:12:38;;;;;;;0.70;0.70;;;;;;;0.77;60.74;99183.88;4485948;32;33431;-78
2023/03/04 04:15:06;;;;;;;0.80;0.80;;;;;;;0.64;61.70;99185.25;4485784;32;34146;-73
2023/03/04 04:17:35;;;;;;;0.80;0.80;;;;;;;0.75;61.08;99181.25;4485791;32;35780;-74
2023/03/04 04:20:05;;;;;;;1.65;1.55;;;;;;;1.18;60.24;99177.19;4485528;32;35141;-73
2023/03/04 04:22:33;;;;;;;0.70;0.70;;;;;;;0.69;61.53;99181.06;4471652;32;32605;-79
2023/03/04 04:25:01;;;;;;;0.90;0.90;;;;;;;1.21;59.81;99172.13;4485682;32;33952;-73
2023/03/04 04:27:30;;;;;;;0.80;0.80;;;;;;;1.08;60.25;99171.00;4485648;32;35030;-73
2023/03/04 04:29:57;;;;;;;0.80;0.80;;;;;;;1.07;60.22;99174.38;4485640;32;35379;-73
2023/03/04 04:32:26;;;;;;;0.73;0.73;;;;;;;1.73;58.46;99171.59;4485662;32;33460;-73
2023/03/04 04:34:54;;;;;;;0.70;0.70;;;;;;;1.28;59.70;99168.03;4485608;32;34700;-73
2023/03/04 04:37:22;;;;;;;0.80;0.80;;;;;;;1.23;59.96;99169.63;4485615;32;35062;-74
2023/03/04 04:39:50;;;;;;;0.80;0.80;;;;;;;1.25;60.39;99168.84;4471532;32;35129;-73
2023/03/04 04:42:19;;;;;;;0.70;0.70;;;;;;;0.79;61.94;99165.13;4485589;32;34559;-73
2023/03/04 04:44:47;;;;;;;1.65;1.60;;;;;;;0.99;61.50;99160.50;4471488;32;33960;-73
2023/03/04 04:47:15;;;;;;;0.77;0.77;;;;;;;0.94;61.33;99165.50;4485159;32;35002;-73
2023/03/04 04:49:44;;;;;;;0.70;0.70;;;;;;;0.73;62.57;99165.84;4485317;32;34461;-73
2023/03/04 04:52:12;;;;;;;0.70;0.70;;;;;;;0.60;63.39;99161.25;4458588;32;33580;-73
2023/03/04 04:54:40;;;;;;;0.90;0.90;;;;;;;0.52;63.96;99158.44;4485364;32;34668;-74
2023/03/04 04:57:08;;;;;;;0.93;0.93;;;;;;;0.73;64.18;99152.16;4485205;32;35051;-73
2023/03/04 04:59:36;;;;;;;0.70;0.70;;;;;;;0.56;64.88;99156.84;4485238;32;35214;-73
2023/03/04 05:02:04;;;;;;;1.35;1.35;;;;;;;0.62;64.69;99156.13;4470859;32;32784;-72
2023/03/04 05:04:32;;;;;;;0.70;0.70;;;;;;;0.21;66.32;99161.00;4485405;32;33907;-72
2023/03/04 05:07:00;;;;;;;0.80;0.80;;;;;;;0.88;64.70;99156.78;4485362;32;35067;-73
2023/03/04 05:09:28;;;;;;;1.65;1.58;;;;;;;0.59;65.68;99159.50;4471103;32;35276;-73
2023/03/04 05:11:56;;;;;;;1.12;1.12;;;;;;;0.31;67.42;99155.31;4485131;32;33535;-73
2023/03/04 05:14:24;;;;;;;2.12;2.03;;;;;;;0.35;67.24;99163.16;4485016;32;34770;-73
2023/03/04 05:16:53;;;;;;;0.80;0.80;;;;;;;0.35;67.30;99155.47;4470864;32;34948;-73
2023/03/04 05:19:21;;;;;;;1.20;1.20;;;;;;;0.23;67.74;99164.47;4484941;32;35059;-73
2023/03/04 05:21:49;;;;;;;0.70;0.70;;;;;;;0.54;66.72;99159.34;4470933;32;34211;-73
2023/03/04 05:24:17;;;;;;;3.03;2.25;;;;;;;0.78;66.52;99160.84;4484795;32;33847;-73
2023/03/04 05:26:45;;;;;;;0.90;0.90;;;;;;;1.19;64.61;99157.56;4484770;32;35990;-73
2023/03/04 05:29:13;;;;;;;0.70;0.70;;;;;;;0.91;64.48;99157.75;4484781;32;34131;-73
2023/03/04 05:31:42;;;;;;;0.98;0.88;;;;;;;1.19;64.39;99158.41;4470676;32;32873;-76
2023/03/04 05:34:10;;;;;;;0.73;0.73;;;;;;;1.04;64.98;99152.91;4472574;32;34642;-73
2023/03/04 05:36:38;;;;;;;0.90;0.90;;;;;;;0.81;65.89;99160.03;4472858;32;35025;-73
2023/03/04 05:39:07;;;;;;;1.83;1.70;;;;;;;0.06;68.87;99158.91;4487027;32;34562;-73
2023/03/04 05:41:35;;;;;;;0.75;0.75;;;;;;;0.74;67.86;99159.00;4472849;32;34291;-72
2023/03/04 05:44:03;;;;;;;1.85;1.75;;;;;;;0.64;67.84;99157.91;4486833;32;34608;-72
2023/03/04 05:46:31;;;;;;;1.42;1.42;;;;;;;0.56;68.99;99160.28;4472579;32;35162;-73
2023/03/04 05:49:00;;;;;;;0.90;0.90;;;;;;;0.60;69.03;99162.91;4486922;32;34441;-73
2023/03/04 05:51:28;;;;;;;2.15;2.05;;;;;;;0.68;69.29;99172.53;4486894;32;33431;-73
2023/03/04 05:53:56;;;;;;;26.10;11.25;;;;;;;0.55;70.18;99171.34;4486969;32;34846;-73
2023/03/04 05:56:24;;;;;;;0.80;0.80;;;;;;;1.14;68.62;99170.25;4486834;32;35151;-74
2023/03/04 05:58:56;;;;;;;2.95;2.83;;;;;;;1.63;66.40;99171.41;4472634;32;34446;-77
2023/03/04 06:01:25;;;;;;;1.67;1.60;;;;;;;1.84;66.17;99171.00;4472894;32;33458;-73
2023/03/04 06:03:53;;;;;;;0.70;0.70;;;;;;;2.52;64.17;99177.50;4472683;32;34398;-73
2023/03/04 06:06:21;;;;;;;4.25;4.03;;;;;;;2.66;62.54;99190.59;4486860;32;35865;-72
2023/03/04 06:08:49;;;;;;;0.80;0.80;;;;;;;3.79;60.21;99195.88;4486693;32;34504;-72
2023/03/04 06:11:18;;;;;;;1.70;1.30;;;;;;;4.71;57.12;99194.44;4486787;32;33020;-73
2023/03/04 06:13:46;;;;;;;0.70;0.70;;;;;;;4.96;56.15;99192.09;4486770;32;33877;-72
2023/03/04 06:16:14;;;;;;;2.20;2.08;;;;;;;5.79;53.07;99187.59;4486572;32;35075;-77
2023/03/04 06:18:42;;;;;;;1.87;1.80;;;;;;;5.86;52.90;99193.66;4459817;32;34520;-73
2023/03/04 06:21:10;;;;;;;0.93;0.93;;;;;;;7.03;49.92;99184.59;4459645;32;33146;-73
2023/03/04 06:23:39;;;;;;;1.60;1.50;;;;;;;6.88;49.96;99201.81;4459762;32;34010;-78
2023/03/04 06:26:10;;;;;;;0.77;0.77;;;;;;;6.87;50.47;99198.38;4486496;32;35046;-73
2023/03/04 06:28:39;;;;;;;0.70;0.70;;;;;;;5.77;52.95;99204.81;4486630;32;35187;-79
2023/03/04 06:31:07;;;;;;;0.90;0.90;;;;;;;5.99;52.43;99205.81;4486664;32;34290;-73
2023/03/04 06:33:35;;;;;;;0.60;0.60;;;;;;;5.07;55.13;99211.13;4486498;32;33991;-78
2023/03/04 06:36:04;;;;;;;1.10;1.10;;;;;;;5.44;54.08;99211.44;4472572;32;35064;-73
2023/03/04 06:38:32;;;;;;;2.35;2.15;;;;;;;5.22;54.77;99214.69;4486493;31;34477;-79
2023/03/04 06:41:11;;;;;;;0.85;0.85;;;;;;;5.43;55.05;99217.44;4486649;32;33486;-73
2023/03/04 06:43:39;;;;;;;1.33;1.33;;;;;;;5.47;54.53;99214.06;4486124;31;33840;-79
2023/03/04 06:46:08;;;;;;;1.55;1.52;;;;;;;5.87;54.48;99216.03;4472324;32;35163;-73
2023/03/04 06:48:36;;;;;;;0.70;0.70;;;;;;;5.93;54.69;99210.94;4486199;32;35241;-74
2023/03/04 06:51:08;;;;;;;0.75;0.75;;;;;;;6.58;52.58;99206.06;4472425;32;33544;-73
2023/03/04 06:53:38;;;;;;;0.65;0.65;;;;;;;7.25;50.33;99210.50;4486564;32;33974;-73
2023/03/04 06:56:07;;;;;;;5.37;3.53;;;;;;;7.51;48.79;99212.22;4472336;32;34952;-74
2023/03/04 06:58:35;;;;;;;0.65;0.65;;;;;;;7.97;47.96;99214.75;4486425;32;34427;-74
2023/03/04 07:01:21;;;;;;;0.98;0.98;;;;;;;6.37;51.33;99214.59;4486442;32;34371;-73
2023/03/04 07:03:50;;;;;;;1.10;0.83;;;;;;;6.02;54.45;99216.16;4486422;32;33996;-73
2023/03/04 07:06:21;;;;;;;0.77;0.70;;;;;;;6.47;53.00;99208.59;4486253;32;35186;-73
2023/03/04 07:08:49;;;;;;;1.98;1.62;;;;;;;5.64;55.61;99218.47;4486377;32;33777;-73
2023/03/04 07:11:18;;;;;;;0.60;0.60;;;;;;;6.26;54.40;99218.03;4486219;32;34476;-74
2023/03/04 07:13:46;;;;;;;2.85;2.65;;;;;;;6.75;52.80;99214.72;4486419;32;34617;-73
2023/03/04 07:16:17;;;;;;;15.20;6.18;;;;;;;6.23;54.36;99212.84;4459201;32;33566;-74
2023/03/04 07:18:46;;;;;;;1.73;1.62;;;;;;;6.17;55.86;99214.53;4472337;32;35258;-73
2023/03/04 07:21:15;;;;;;;1.40;0.85;;;;;;;6.50;53.68;99212.94;4486257;32;33402;-74
2023/03/04 07:23:43;;;;;;;3.75;3.45;;;;;;;6.31;55.07;99209.41;4472431;32;34551;-73
2023/03/04 07:26:12;;;;;;;0.68;0.68;;;;;;;6.34;55.70;99201.69;4472088;32;35055;-73
2023/03/04 07:28:41;;;;;;;0.60;0.60;;;;;;;6.24;55.84;99211.97;4471992;32;35287;-79
2023/03/04 07:31:30;;;;;;;0.80;0.80;;;;;;;5.71;57.85;99202.16;4486307;32;34256;-75
2023/03/04 07:34:02;;;;;;;0.70;0.70;;;;;;;6.92;54.27;99206.13;4486241;32;34003;-74
2023/03/04 07:36:30;;;;;;;1.35;1.35;;;;;;;6.39;55.82;99202.56;4486255;32;35224;-73
2023/03/04 07:38:58;;;;;;;1.02;1.02;;;;;;;7.41;52.61;99201.00;4472078;32;35075;-79
2023/03/04 07:41:27;;;;;;;1.23;1.15;;;;;;;6.94;56.31;99204.44;4472059;32;33357;-73
2023/03/04 07:43:57;;;;;;;2.47;1.10;;;;;;;6.91;56.08;99197.50;4472050;32;34818;-74
2023/03/04 07:46:25;;;;;;;0.80;0.80;;;;;;;7.55;54.74;99199.28;4471846;32;34005;-73
2023/03/04 07:48:54;;;;;;;0.82;0.82;;;;;;;8.11;52.14;99193.97;4486064;32;34450;-80
2023/03/04 07:51:24;;;;;;;1.42;1.37;;;;;;;8.13;51.91;99193.09;4486103;32;34219;-79
2023/03/04 07:53:56;;;;;;;0.57;0.57;;;;;;;8.30;52.55;99195.63;4472140;32;34067;-78
2023/03/04 07:56:27;;;;;;;0.95;0.95;;;;;;;8.44;52.60;99195.63;4471105;32;35028;-76
2023/03/04 07:58:56;;;;;;;0.80;0.80;;;;;;;8.55;51.01;99195.56;4471915;32;35435;-81
2023/03/04 08:01:33;;;;;;;0.60;0.60;;;;;;;8.72;51.32;99195.50;4471977;32;33807;-74
2023/03/04 08:04:06;;;;;;;1.23;1.23;;;;;;;8.92;49.95;99196.22;4471957;32;33976;-76
2023/03/04 08:06:35;;;;;;;0.68;0.68;;;;;;;8.79;50.19;99198.88;4486194;32;35794;-74
2023/03/04 08:09:05;;;;;;;1.98;1.87;;;;;;;9.14;50.37;99190.91;4485827;32;35160;-81
2023/03/04 08:11:36;;;;;;;0.75;0.75;;;;;;;9.34;48.96;99189.88;4459172;32;33605;-74
2023/03/04 08:14:05;;;;;;;1.30;1.27;;;;;;;9.62;48.26;99187.91;4471767;32;34010;-74
2023/03/04 08:16:33;;;;;;;0.98;0.98;;;;;;;9.75;47.30;99189.47;4458959;32;35853;-74
2023/03/04 08:19:02;;;;;;;4.12;3.78;;;;;;;10.09;47.42;99189.12;4471607;32;34707;-80
2023/03/04 08:21:31;;;;;;;7.18;1.77;;;;;;;10.20;46.58;99189.88;4471870;32;33485;-81
2023/03/04 08:24:01;;;;;;;4.03;1.95;;;;;;;10.20;47.01;99186.41;4471630;32;34768;-73
2023/03/04 08:26:58;;;;;;;1.00;0.95;;;;;;;10.55;44.21;99190.34;4471677;32;34292;-74
2023/03/04 08:29:27;;;;;;;3.65;2.50;;;;;;;10.20;44.84;99186.41;4469553;32;33390;-74
2023/03/04 08:31:55;;;;;;;3.95;0.85;;;;;;;10.61;44.16;99182.47;4471367;32;32638;-78
2023/03/04 08:34:26;;;;;;;0.55;0.55;;;;;;;10.55;43.00;99179.94;4471502;32;34067;-82
2023/03/04 08:36:54;;;;;;;1.15;0.70;;;;;;;10.73;42.50;99184.91;4471483;32;34710;-79
2023/03/04 08:39:23;;;;;;;2.25;2.10;;;;;;;10.39;44.72;99185.34;4471456;32;35388;-74
2023/03/04 08:41:51;;;;;;;1.80;1.70;;;;;;;10.19;44.77;99185.53;4485389;32;33530;-74
2023/03/04 08:44:19;;;;;;;0.85;0.85;;;;;;;11.25;41.35;99180.66;4485413;31;33822;-81
2023/03/04 08:46:47;;;;;;;1.58;1.48;;;;;;;11.22;41.64;99179.84;4485000;32;35019;-81
2023/03/04 08:49:15;;;;;;;0.60;0.60;;;;;;;11.07;41.56;99180.94;4471115;32;35261;-74
2023/03/04 08:51:44;;;;;;;7.57;3.75;;;;;;;11.31;41.65;99179.69;4471101;32;34609;-74
2023/03/04 08:54:12;;;;;;;1.67;1.58;;;;;;;11.52;40.38;99168.91;4471186;32;33920;-74
2023/03/04 08:56:40;;;;;;;5.47;3.33;;;;;;;11.49;39.69;99178.53;4471462;32;35233;-73
2023/03/04 08:59:09;;;;;;;1.60;1.50;;;;;;;11.55;41.56;99161.00;4485124;32;34308;-81
2023/03/04 09:01:37;;;;;;;0.40;0.40;;;;;;;11.84;38.39;99170.09;4485018;32;33289;-81
2023/03/04 09:04:05;;;;;;;1.05;1.00;;;;;;;12.09;38.71;99159.22;4485336;32;33815;-72
2023/03/04 09:06:34;;;;;;;2.75;1.73;;;;;;;11.89;38.36;99163.00;4470299;32;34916;-74
2023/03/04 09:09:03;;;;;;;4.95;2.80;;;;;;;12.32;38.54;99162.19;4487047;32;35258;-74
2023/03/04 09:11:31;;;;;;;3.60;3.30;;;;;;;12.66;38.29;99168.47;4487235;32;34219;-81
2023/03/04 09:13:59;;;;;;;3.05;1.33;;;;;;;12.92;37.53;99159.16;4486995;32;33780;-73
2023/03/04 09:16:29;;;;;;;3.97;3.53;;;;;;;13.41;36.60;99160.59;4447613;32;34294;-76
2023/03/04 09:18:59;;;;;;;4.20;2.42;;;;;;;13.18;37.28;99161.16;4460634;32;34559;-74
2023/03/04 09:21:27;;;;;;;0.47;0.47;;;;;;;13.84;36.02;99160.34;4487127;32;33573;-79
2023/03/04 09:23:55;;;;;;;2.12;1.80;;;;;;;14.07;35.95;99161.50;4487146;32;33870;-75
2023/03/04 09:26:26;;;;;;;0.80;0.80;;;;;;;14.63;35.20;99159.91;4486894;32;35201;-81
2023/03/04 09:28:57;;;;;;;7.60;1.80;;;;;;;15.29;33.26;99156.06;4473028;32;35063;-75
2023/03/04 09:31:26;;;;;;;1.62;1.52;;;;;;;14.43;34.43;99163.94;4472908;32;34216;-76
2023/03/04 09:33:56;;;;;;;1.65;1.55;;;;;;;15.02;33.66;99162.19;4486829;32;33968;-74
2023/03/04 09:36:24;;;;;;;1.37;1.33;;;;;;;14.81;34.78;99164.59;4486398;32;35358;-79
2023/03/04 09:38:52;;;;;;;0.88;0.88;;;;;;;15.64;32.13;99161.91;4486569;32;35147;-79
2023/03/04 09:41:28;;;;;;;1.45;1.35;;;;;;;15.03;33.06;99167.41;4486795;32;33733;-76
2023/03/04 09:43:57;;;;;;;5.43;3.85;;;;;;;15.34;33.16;99164.66;4486864;32;33833;-74
2023/03/04 09:46:37;;;;;;;1.67;1.58;;;;;;;15.40;32.82;99154.87;4486380;32;35043;-73
2023/03/04 09:49:06;;;;;;;7.62;3.10;;;;;;;15.81;32.21;99152.59;4472946;32;34416;-74
2023/03/04 09:51:34;;;;;;;4.65;3.22;;;;;;;16.04;32.93;99155.28;4486473;32;33335;-73
2023/03/04 09:54:20;;;;;;;36.80;20.37;;;;;;;16.20;32.71;99149.47;4486448;32;34011;-74
2023/03/04 09:56:50;;;;;;;8.60;5.95;;;;;;;16.41;32.93;99153.94;4486782;32;35056;-73
2023/03/04 09:59:21;;;;;;;6.12;3.05;;;;;;;16.79;30.90;99138.44;4486648;32;34529;-73
2023/03/04 10:01:59;;;;;;;3.33;3.05;;;;;;;16.59;31.25;99140.97;4486665;32;33595;-73
2023/03/04 10:04:35;;;;;;;4.10;2.72;;;;;;;16.66;31.13;99126.72;4472600;32;33659;-73
2023/03/04 10:07:03;;;;;;;;;;;;;;;17.16;30.33;99139.63;4460049;32;35657;-73
2023/03/04 10:09:42;;;;;;;4.18;3.78;;;;;;;17.32;30.55;99131.09;4486601;32;34783;-73
2023/03/04 10:12:15;;;;;;;5.03;4.03;;;;;;;17.72;30.63;99130.28;4486557;32;33431;-74
2023/03/04 10:14:51;;;;;;;1.90;1.73;;;;;;;17.63;30.84;99130.66;4472613;32;34915;-74
2023/03/04 10:17:50;;;;;;;3.27;2.97;;;;;;;17.40;31.15;99116.72;4486547;32;35156;-74
2023/03/04 10:20:24;;;;;;;3.17;2.97;;;;;;;18.03;29.74;99117.56;4484459;32;34912;-74
2023/03/04 10:22:57;;;;;;;3.05;2.65;;;;;;;18.68;28.63;99126.81;4472595;32;33447;-74
2023/03/04 10:25:29;;;;;;;4.75;3.60;;;;;;;18.70;28.88;99118.84;4472528;32;33899;-76
2023/03/04 10:28:03;;;;;;;2.15;1.87;;;;;;;19.19;27.48;99113.84;4472745;32;35016;-74
2023/03/04 10:31:12;;;;;;;3.58;2.97;;;;;;;18.33;29.57;99110.03;4472471;32;35340;-74
2023/03/04 10:33:41;;;;;;;3.70;3.00;;;;;;;18.30;29.10;99115.44;4486552;32;33777;-75
2023/03/04 10:36:35;;;;;;;3.70;2.75;;;;;;;18.44;28.75;99102.47;4486441;32;34697;-75
2023/03/04 10:39:12;;;;;;;5.40;3.65;;;;;;;18.48;28.30;99105.84;4486372;32;35052;-74
2023/03/04 10:41:44;;;;;;;4.65;3.92;;;;;;;18.40;28.94;99092.16;4472355;32;34329;-74
2023/03/04 10:44:16;;;;;;;5.05;3.05;;;;;;;18.69;28.43;99083.72;4486354;32;34217;-74
2023/03/04 10:46:47;;;;;;;4.87;3.95;;;;;;;18.44;28.72;99085.78;4469358;32;34129;-74
2023/03/04 10:49:17;;;;;;;1.77;1.67;;;;;;;17.92;28.77;99094.31;4469396;32;35870;-74
2023/03/04 10:52:01;;;;;;;1.70;1.58;;;;;;;18.97;27.47;99087.69;4469518;32;34912;-74
2023/03/04 10:54:48;;;;;;;4.35;3.92;;;;;;;17.68;28.43;99080.41;4469669;32;33392;-74
2023/03/04 10:57:17;;;;;;;;;;;;;;;17.36;28.91;99080.88;4457066;32;33934;-74
2023/03/04 11:00:06;;;;;;;21.42;3.95;;;;;;;18.12;28.31;99081.09;4470424;32;35295;-74
2023/03/04 11:02:35;;;;;;;1.48;1.40;;;;;;;17.95;28.15;99073.97;4462769;32;34871;-74
2023/03/04 11:05:17;;;;;;;2.97;2.60;;;;;;;17.47;29.04;99072.56;4469152;32;33565;-75
2023/03/04 11:07:53;;;;;;;3.28;2.55;;;;;;;18.37;27.87;99067.62;4470495;32;33997;-74
2023/03/04 11:10:29;;;;;;;5.80;3.08;;;;;;;18.36;27.10;99063.28;4470453;32;35156;-74
2023/03/04 11:12:58;;;;;;;3.53;2.75;;;;;;;17.69;27.12;99061.06;4470473;32;35193;-75
2023/03/04 11:15:29;;;;;;;3.72;3.42;;;;;;;18.44;27.02;99064.69;4470257;32;34310;-74
2023/03/04 11:18:03;;;;;;;1.90;1.80;;;;;;;17.03;28.30;99057.72;4469466;32;34620;-76
2023/03/04 11:20:50;;;;;;;3.80;3.30;;;;;;;18.14;27.29;99058.19;4469279;32;35189;-74
2023/03/04 11:23:42;;;;;;;3.45;2.70;;;;;;;18.39;26.49;99051.75;4470480;32;35269;-74
2023/03/04 11:26:17;;;;;;;3.47;2.67;;;;;;;17.88;27.82;99040.06;4470529;32;34537;-76
2023/03/04 11:29:00;;;;;;;4.50;3.33;;;;;;;17.38;27.75;99046.63;4469389;32;33973;-73
2023/03/04 11:31:36;;;;;;;4.72;2.50;;;;;;;16.20;29.26;99041.75;4469274;32;35048;-74
2023/03/04 11:34:22;;;;;;;5.15;4.65;;;;;;;17.25;28.10;99033.13;4469323;32;34343;-75
2023/03/04 11:37:27;;;;;;;2.28;2.15;;;;;;;17.83;28.11;99039.41;4469388;32;33447;-74
2023/03/04 11:40:00;;;;;;;1.42;1.33;;;;;;;15.83;29.44;99040.50;4470415;32;33931;-75
2023/03/04 11:42:51;;;;;;;5.65;5.03;;;;;;;16.38;28.84;99029.69;4469203;32;35031;-74
2023/03/04 11:45:42;;;;;;;4.10;3.70;;;;;;;16.78;28.52;99025.44;4469280;32;34404;-74
2023/03/04 11:48:17;;;;;;;2.90;2.65;;;;;;;16.10;28.34;99021.09;4468975;32;33431;-74
2023/03/04 11:50:52;;;;;;;3.75;3.22;;;;;;;16.64;28.51;99018.09;4470245;32;34847;-75
2023/03/04 11:53:32;;;;;;;2.03;1.83;;;;;;;17.40;28.11;99007.91;4468838;32;34901;-75
2023/03/04 11:56:29;;;;;;;5.87;4.15;;;;;;;17.03;27.90;99010.37;4469819;32;34500;-74